createdAt,value
2018-05-27T00:01:04.424Z,18.07
2018-05-27T00:03:35.668Z,18.00
2018-05-27T00:06:04.701Z,17.95
2018-05-27T00:08:33.999Z,17.89
2018-05-27T00:11:03.608Z,17.85
2018-05-27T00:13:32.510Z,17.79
2018-05-27T00:16:01.435Z,17.74
2018-05-27T00:18:30.511Z,17.69
2018-05-27T00:20:59.552Z,17.65
2018-05-27T00:23:28.349Z,17.61
2018-05-27T00:26:01.052Z,17.58
2018-05-27T00:28:29.742Z,17.50
2018-05-27T00:30:58.593Z,17.46
2018-05-27T00:33:27.241Z,17.40
2018-05-27T00:36:13.402Z,17.35
2018-05-27T00:38:44.596Z,18.01
2018-05-27T00:41:13.848Z,17.48
2018-05-27T00:43:42.495Z,17.36
2018-05-27T00:46:11.167Z,17.28
2018-05-27T00:48:39.938Z,17.21
2018-05-27T00:51:10.715Z,17.15
2018-05-27T00:54:03.304Z,17.08
2018-05-27T00:56:34.566Z,17.00
2018-05-27T00:59:05.712Z,16.96
2018-05-27T01:01:34.773Z,16.91
2018-05-27T01:04:03.439Z,16.86
2018-05-27T01:09:19.701Z,16.77
2018-05-27T01:11:51.126Z,16.75
2018-05-27T01:14:22.783Z,17.40
2018-05-27T01:16:51.427Z,16.94
2018-05-27T01:19:20.443Z,16.82
2018-05-27T01:21:52.320Z,16.78
2018-05-27T01:24:23.423Z,16.74
2018-05-27T01:26:55.613Z,16.70
2018-05-27T01:29:24.653Z,16.66
2018-05-27T01:31:54.304Z,16.62
2018-05-27T01:34:40.207Z,16.60
2018-05-27T01:37:10.919Z,16.54
2018-05-27T01:39:42.610Z,16.50
2018-05-27T01:42:11.267Z,16.46
2018-05-27T01:44:39.929Z,16.42
2018-05-27T01:47:08.550Z,16.40
2018-05-27T01:49:37.689Z,16.37
2018-05-27T01:52:08.732Z,16.35
2018-05-27T01:54:39.420Z,16.32
2018-05-27T01:57:08.111Z,16.29
2018-05-27T01:59:37.329Z,16.25
2018-05-27T02:02:06.015Z,16.20
2018-05-27T02:04:34.750Z,16.18
2018-05-27T02:07:03.427Z,16.14
2018-05-27T02:09:34.359Z,16.12
2018-05-27T02:12:03.967Z,16.77
2018-05-27T02:14:32.628Z,16.28
2018-05-27T02:17:01.912Z,16.18
2018-05-27T02:19:33.101Z,16.12
2018-05-27T02:22:01.995Z,16.07
2018-05-27T02:24:31.279Z,16.71
2018-05-27T02:27:00.035Z,16.22
2018-05-27T02:29:28.680Z,16.12
2018-05-27T02:31:58.418Z,16.04
2018-05-27T02:34:27.436Z,15.97
2018-05-27T02:36:57.019Z,15.90
2018-05-27T02:39:27.718Z,16.54
2018-05-27T02:42:06.202Z,16.02
2018-05-27T02:44:42.383Z,15.80
2018-05-27T02:47:12.060Z,15.60
2018-05-27T02:49:43.339Z,15.41
2018-05-27T02:52:11.997Z,15.30
2018-05-27T02:54:42.818Z,15.24
2018-05-27T02:57:13.852Z,15.22
2018-05-27T02:59:59.328Z,15.23
2018-05-27T03:02:29.267Z,15.27
2018-05-27T03:05:02.584Z,15.30
2018-05-27T03:07:34.168Z,15.31
2018-05-27T03:10:06.623Z,15.32
2018-05-27T03:12:35.571Z,15.31
2018-05-27T03:15:07.122Z,15.29
2018-05-27T03:17:36.292Z,15.29
2018-05-27T03:20:05.041Z,15.26
2018-05-27T03:22:33.736Z,15.24
2018-05-27T03:25:02.428Z,15.24
2018-05-27T03:27:31.336Z,15.26
2018-05-27T03:30:01.415Z,15.99
2018-05-27T03:32:30.252Z,15.55
2018-05-27T03:34:59.043Z,15.52
2018-05-27T03:37:37.483Z,15.55
2018-05-27T03:40:06.251Z,15.59
2018-05-27T03:42:34.875Z,15.64
2018-05-27T03:45:03.690Z,15.70
2018-05-27T03:47:32.430Z,15.74
2018-05-27T03:50:04.109Z,15.78
2018-05-27T03:52:41.444Z,15.80
2018-05-27T03:55:10.228Z,15.81
2018-05-27T03:57:51.733Z,15.83
2018-05-27T04:00:20.969Z,15.85
2018-05-27T04:02:51.496Z,15.86
2018-05-27T04:05:57.386Z,15.87
2018-05-27T04:08:34.697Z,15.86
2018-05-27T04:11:04.451Z,15.89
2018-05-27T04:13:35.599Z,15.94
2018-05-27T04:16:08.021Z,16.00
2018-05-27T04:18:36.663Z,16.02
2018-05-27T04:21:05.323Z,16.06
2018-05-27T04:23:33.950Z,16.07
2018-05-27T04:26:02.934Z,16.08
2018-05-27T04:28:39.019Z,16.14
2018-05-27T04:31:17.178Z,16.19
2018-05-27T04:33:45.831Z,16.22
2018-05-27T04:36:17.874Z,16.28
2018-05-27T04:38:46.595Z,16.34
2018-05-27T04:41:15.248Z,16.40
2018-05-27T04:43:44.817Z,16.46
2018-05-27T04:46:15.957Z,16.52
2018-05-27T04:48:44.652Z,17.33
2018-05-27T04:51:13.345Z,16.87
2018-05-27T04:53:42.042Z,16.82
2018-05-27T04:56:13.087Z,17.55
2018-05-27T04:58:44.889Z,17.07
2018-05-27T05:01:16.983Z,17.77
2018-05-27T05:03:49.798Z,17.29
2018-05-27T05:06:18.756Z,17.23
2018-05-27T05:08:47.853Z,17.24
2018-05-27T05:11:20.090Z,17.26
2018-05-27T05:13:50.999Z,17.30
2018-05-27T05:16:22.208Z,17.32
2018-05-27T05:18:51.200Z,17.37
2018-05-27T05:21:21.971Z,17.40
2018-05-27T05:23:52.632Z,17.48
2018-05-27T05:26:24.017Z,17.54
2018-05-27T05:28:53.111Z,17.63
2018-05-27T05:31:22.871Z,17.71
2018-05-27T05:33:51.529Z,17.83
2018-05-27T05:36:22.442Z,17.95
2018-05-27T05:38:51.071Z,18.03
2018-05-27T05:41:21.684Z,18.18
2018-05-27T05:43:51.270Z,18.32
2018-05-27T05:46:19.902Z,18.47
2018-05-27T05:48:48.543Z,18.60
2018-05-27T05:51:19.143Z,18.75
2018-05-27T05:53:48.371Z,18.95
2018-05-27T05:56:23.165Z,19.14
2018-05-27T05:58:52.296Z,19.34
2018-05-27T06:01:25.110Z,19.57
2018-05-27T06:04:03.495Z,19.73
2018-05-27T06:06:36.044Z,19.78
2018-05-27T06:09:08.716Z,19.76
2018-05-27T06:11:39.782Z,19.81
2018-05-27T06:14:10.821Z,20.01
2018-05-27T06:16:39.476Z,20.21
2018-05-27T06:19:16.090Z,20.41
2018-05-27T06:21:44.979Z,20.62
2018-05-27T06:24:13.621Z,20.84
2018-05-27T06:26:49.392Z,21.15
2018-05-27T06:29:20.254Z,21.44
2018-05-27T06:32:02.485Z,21.70
2018-05-27T06:34:35.045Z,22.02
2018-05-27T06:37:04.005Z,22.34
2018-05-27T06:39:36.404Z,23.41
2018-05-27T06:42:05.373Z,23.08
2018-05-27T06:44:34.517Z,23.18
2018-05-27T06:47:03.201Z,23.38
2018-05-27T06:49:32.279Z,23.28
2018-05-27T06:52:00.877Z,23.41
2018-05-27T06:54:29.556Z,23.69
2018-05-27T06:56:58.205Z,24.82
2018-05-27T06:59:34.840Z,25.12
2018-05-27T07:02:05.823Z,24.61
2018-05-27T07:04:34.506Z,24.69
2018-05-27T07:07:05.289Z,24.88
2018-05-27T07:09:35.976Z,24.86
2018-05-27T07:12:22.206Z,26.13
2018-05-27T07:14:51.185Z,25.56
2018-05-27T07:17:19.806Z,25.40
2018-05-27T07:19:48.473Z,25.31
2018-05-27T07:22:18.035Z,25.42
2018-05-27T07:24:46.691Z,26.56
2018-05-27T07:27:15.303Z,25.97
2018-05-27T07:29:43.963Z,25.97
2018-05-27T07:32:15.128Z,25.99
2018-05-27T07:34:43.721Z,26.10
2018-05-27T07:37:14.751Z,27.45
2018-05-27T07:39:45.441Z,26.71
2018-05-27T07:42:15.098Z,26.68
2018-05-27T07:44:45.844Z,26.85
2018-05-27T07:47:14.479Z,26.98
2018-05-27T07:49:45.749Z,27.14
2018-05-27T07:52:15.913Z,27.35
2018-05-27T07:54:44.588Z,27.50
2018-05-27T07:57:14.104Z,27.56
2018-05-27T07:59:46.538Z,27.76
2018-05-27T08:02:17.874Z,27.94
2018-05-27T08:04:46.578Z,27.90
2018-05-27T08:07:16.559Z,27.87
2018-05-27T08:09:45.182Z,28.09
2018-05-27T08:12:14.414Z,29.39
2018-05-27T08:14:43.074Z,28.72
2018-05-27T08:17:12.195Z,28.61
2018-05-27T08:19:41.666Z,28.40
2018-05-27T08:22:13.843Z,28.22
2018-05-27T08:24:42.458Z,29.34
2018-05-27T08:27:11.517Z,28.57
2018-05-27T08:29:47.489Z,28.49
2018-05-27T08:32:16.246Z,28.52
2018-05-27T08:34:44.906Z,28.62
2018-05-27T08:37:16.279Z,28.69
2018-05-27T08:39:45.766Z,28.76
2018-05-27T08:42:21.961Z,28.74
2018-05-27T08:44:50.580Z,28.86
2018-05-27T08:47:19.220Z,29.02
2018-05-27T08:49:47.822Z,29.14
2018-05-27T08:52:16.481Z,29.31
2018-05-27T08:54:45.087Z,29.46
2018-05-27T08:57:16.038Z,30.92
2018-05-27T08:59:44.599Z,30.39
2018-05-27T09:02:15.375Z,30.38
2018-05-27T09:04:46.340Z,30.51
2018-05-27T09:07:17.528Z,30.47
2018-05-27T09:09:49.769Z,31.84
2018-05-27T09:12:22.852Z,31.04
2018-05-27T09:14:52.340Z,31.27
2018-05-27T09:17:24.264Z,31.58
2018-05-27T09:19:53.891Z,33.13
2018-05-27T09:22:24.900Z,32.19
2018-05-27T09:24:55.545Z,32.15
2018-05-27T09:27:24.254Z,32.23
2018-05-27T09:29:56.857Z,32.26
2018-05-27T09:32:26.643Z,32.29
2018-05-27T09:34:56.394Z,32.09
2018-05-27T09:37:25.331Z,31.84
2018-05-27T09:39:55.757Z,31.55
2018-05-27T09:42:24.873Z,31.26
2018-05-27T09:44:56.547Z,31.02
2018-05-27T09:47:25.421Z,30.83
2018-05-27T09:49:56.972Z,30.63
2018-05-27T09:52:28.550Z,30.45
2018-05-27T09:55:00.789Z,30.46
2018-05-27T09:57:29.786Z,30.29
2018-05-27T10:00:05.945Z,30.21
2018-05-27T10:02:35.626Z,30.27
2018-05-27T10:05:08.645Z,30.57
2018-05-27T10:07:39.246Z,30.86
2018-05-27T10:10:07.871Z,31.18
2018-05-27T10:12:38.728Z,31.42
2018-05-27T10:15:09.536Z,32.82
2018-05-27T10:17:41.084Z,32.14
2018-05-27T10:20:13.268Z,32.21
2018-05-27T10:22:41.907Z,32.16
2018-05-27T10:25:10.539Z,32.04
2018-05-27T10:27:41.461Z,31.88
2018-05-27T10:30:10.081Z,33.26
2018-05-27T10:32:39.152Z,32.53
2018-05-27T10:35:08.211Z,32.65
2018-05-27T10:37:36.844Z,32.68
2018-05-27T10:40:05.461Z,32.50
2018-05-27T10:42:34.096Z,32.34
2018-05-27T10:45:02.710Z,32.33
2018-05-27T10:47:31.539Z,32.64
2018-05-27T10:50:03.993Z,32.92
2018-05-27T10:52:41.736Z,33.24
2018-05-27T10:55:13.334Z,33.29
2018-05-27T10:57:41.982Z,33.27
2018-05-27T11:00:11.314Z,33.13
2018-05-27T11:02:39.927Z,32.91
2018-05-27T11:05:08.559Z,32.72
2018-05-27T11:07:37.163Z,32.57
2018-05-27T11:10:07.091Z,32.47
2018-05-27T11:12:35.698Z,33.76
2018-05-27T11:15:04.559Z,32.68
2018-05-27T11:17:33.753Z,32.47
2018-05-27T11:20:03.449Z,32.31
2018-05-27T11:22:34.804Z,32.12
2018-05-27T11:25:04.218Z,31.90
2018-05-27T11:27:35.146Z,31.67
2018-05-27T11:30:04.641Z,31.43
2018-05-27T11:32:34.162Z,32.51
2018-05-27T11:35:02.799Z,31.29
2018-05-27T11:37:31.975Z,32.13
2018-05-27T11:40:01.149Z,30.91
2018-05-27T11:42:31.379Z,30.51
2018-05-27T11:44:59.964Z,30.25
2018-05-27T11:47:29.218Z,30.07
2018-05-27T11:49:58.100Z,30.01
2018-05-27T11:52:26.706Z,30.09
2018-05-27T11:54:57.301Z,30.26
2018-05-27T11:57:26.150Z,30.42
2018-05-27T11:59:57.283Z,30.52
2018-05-27T12:02:42.382Z,31.84
2018-05-27T12:05:11.512Z,31.02
2018-05-27T12:07:43.394Z,30.97
2018-05-27T12:10:14.059Z,30.98
2018-05-27T12:12:42.668Z,31.08
2018-05-27T12:15:11.316Z,31.28
2018-05-27T12:17:40.249Z,31.63
2018-05-27T12:20:09.238Z,33.24
2018-05-27T12:22:44.263Z,32.66
2018-05-27T12:25:14.306Z,32.98
2018-05-27T12:27:43.520Z,32.96
2018-05-27T12:30:12.457Z,32.74
2018-05-27T12:32:41.080Z,32.56
2018-05-27T12:35:19.718Z,32.41
2018-05-27T12:37:48.780Z,32.33
2018-05-27T12:40:19.240Z,32.21
2018-05-27T12:42:50.965Z,32.44
2018-05-27T12:45:23.519Z,32.90
2018-05-27T12:47:54.032Z,33.02
2018-05-27T12:50:22.658Z,33.28
2018-05-27T12:52:51.988Z,33.66
2018-05-27T12:55:20.982Z,34.00
2018-05-27T12:57:49.577Z,34.36
2018-05-27T13:00:20.920Z,34.58
2018-05-27T13:02:52.220Z,34.60
2018-05-27T13:05:21.870Z,34.46
2018-05-27T13:07:52.810Z,34.35
2018-05-27T13:10:21.455Z,34.17
2018-05-27T13:12:50.387Z,33.97
2018-05-27T13:15:20.378Z,33.82
2018-05-27T13:17:48.994Z,33.68
2018-05-27T13:20:17.633Z,33.98
2018-05-27T13:22:50.538Z,34.32
2018-05-27T13:25:21.407Z,34.57
2018-05-27T13:27:50.043Z,34.84
2018-05-27T13:30:26.034Z,35.11
2018-05-27T13:32:56.846Z,35.29
2018-05-27T13:35:26.420Z,35.46
2018-05-27T13:37:59.379Z,35.62
2018-05-27T13:43:19.762Z,35.86
2018-05-27T13:45:48.772Z,35.91
2018-05-27T13:48:17.375Z,35.90
2018-05-27T13:50:46.657Z,36.03
2018-05-27T13:53:22.445Z,36.15
2018-05-27T13:55:59.583Z,36.20
2018-05-27T13:58:23.612Z,36.18
2018-05-27T14:00:52.460Z,36.20
2018-05-27T14:03:21.360Z,36.24
2018-05-27T14:05:51.584Z,36.28
2018-05-27T14:08:22.722Z,36.26
2018-05-27T14:10:53.457Z,36.27
2018-05-27T14:13:25.061Z,36.29
2018-05-27T14:15:54.483Z,37.32
2018-05-27T14:18:27.093Z,36.56
2018-05-27T14:20:57.380Z,36.39
2018-05-27T14:23:28.631Z,36.37
2018-05-27T14:25:57.936Z,36.39
2018-05-27T14:28:30.144Z,36.32
2018-05-27T14:31:00.669Z,36.34
2018-05-27T14:33:31.997Z,36.38
2018-05-27T14:36:01.406Z,36.40
2018-05-27T14:38:32.216Z,36.36
2018-05-27T14:41:03.146Z,36.39
2018-05-27T14:43:32.531Z,36.48
2018-05-27T14:46:01.974Z,36.75
2018-05-27T14:48:33.501Z,37.26
2018-05-27T14:51:04.906Z,37.72
2018-05-27T14:53:34.290Z,38.07
2018-05-27T14:56:03.016Z,38.49
2018-05-27T14:58:34.819Z,38.75
2018-05-27T15:01:04.960Z,38.96
2018-05-27T15:03:33.895Z,40.40
2018-05-27T15:06:03.526Z,39.75
2018-05-27T15:08:32.158Z,39.62
2018-05-27T15:11:00.768Z,39.13
2018-05-27T15:13:35.091Z,38.58
2018-05-27T15:16:05.880Z,37.97
2018-05-27T15:18:34.525Z,37.52
2018-05-27T15:21:03.462Z,37.30
2018-05-27T15:23:32.225Z,37.21
2018-05-27T15:26:02.907Z,37.42
2018-05-27T15:28:31.493Z,39.21
2018-05-27T15:31:00.091Z,38.68
2018-05-27T15:33:28.716Z,39.49
2018-05-27T15:35:57.326Z,38.67
2018-05-27T15:38:25.955Z,38.53
2018-05-27T15:40:56.508Z,38.25
2018-05-27T15:43:25.157Z,37.96
2018-05-27T15:45:56.467Z,37.75
2018-05-27T15:48:27.322Z,37.65
2018-05-27T15:50:55.918Z,37.52
2018-05-27T15:53:25.055Z,37.56
2018-05-27T15:55:53.975Z,37.74
2018-05-27T15:58:22.612Z,38.16
2018-05-27T16:00:51.208Z,38.60
2018-05-27T16:03:20.753Z,38.97
2018-05-27T16:05:49.427Z,39.28
2018-05-27T16:08:18.055Z,39.63
2018-05-27T16:10:46.654Z,39.89
2018-05-27T16:13:15.734Z,41.59
2018-05-27T16:15:45.961Z,40.62
2018-05-27T16:18:14.563Z,39.83
2018-05-27T16:20:43.323Z,38.79
2018-05-27T16:23:11.926Z,37.88
2018-05-27T16:25:40.886Z,38.65
2018-05-27T16:28:10.577Z,37.03
2018-05-27T16:30:39.577Z,36.29
2018-05-27T16:33:09.155Z,35.60
2018-05-27T16:35:37.787Z,34.99
2018-05-27T16:38:06.399Z,34.47
2018-05-27T16:40:37.341Z,35.37
2018-05-27T16:43:08.328Z,34.03
2018-05-27T16:45:37.387Z,33.61
2018-05-27T16:48:06.726Z,33.36
2018-05-27T16:50:39.253Z,33.13
2018-05-27T16:53:08.203Z,32.95
2018-05-27T16:55:36.870Z,32.77
2018-05-27T16:58:07.000Z,32.57
2018-05-27T17:00:36.487Z,32.32
2018-05-27T17:03:07.035Z,32.03
2018-05-27T17:05:37.938Z,31.78
2018-05-27T17:08:21.991Z,31.57
2018-05-27T17:11:07.993Z,31.36
2018-05-27T17:13:48.516Z,31.17
2018-05-27T17:19:14.367Z,32.03
2018-05-27T17:21:45.999Z,32.04
2018-05-27T17:24:17.042Z,31.10
2018-05-27T17:26:53.654Z,30.83
2018-05-27T17:29:22.347Z,31.65
2018-05-27T17:31:53.413Z,30.78
2018-05-27T17:34:22.371Z,30.53
2018-05-27T17:36:55.397Z,30.36
2018-05-27T17:39:24.004Z,30.19
2018-05-27T17:41:55.035Z,30.05
2018-05-27T17:44:23.680Z,29.90
2018-05-27T17:46:55.155Z,29.75
2018-05-27T17:49:23.767Z,29.59
2018-05-27T17:51:52.743Z,29.45
2018-05-27T17:54:21.538Z,29.28
2018-05-27T17:56:52.185Z,29.13
2018-05-27T17:59:22.900Z,28.97
2018-05-27T18:01:56.488Z,28.79
2018-05-27T18:04:30.943Z,28.62
2018-05-27T18:07:01.869Z,28.46
2018-05-27T18:09:30.816Z,29.29
2018-05-27T18:12:00.202Z,28.45
2018-05-27T18:14:29.282Z,28.12
2018-05-27T18:16:58.215Z,27.84
2018-05-27T18:19:30.952Z,28.59
2018-05-27T18:22:00.288Z,27.65
2018-05-27T18:24:32.209Z,27.34
2018-05-27T18:27:03.619Z,27.14
2018-05-27T18:29:39.738Z,27.92
2018-05-27T18:32:08.884Z,27.10
2018-05-27T18:34:38.127Z,26.88
2018-05-27T18:37:07.437Z,26.71
2018-05-27T18:39:36.595Z,26.54
2018-05-27T18:42:07.040Z,26.39
2018-05-27T18:44:36.641Z,26.23
2018-05-27T18:47:05.624Z,26.06
2018-05-27T18:49:35.160Z,25.92
2018-05-27T18:52:04.454Z,25.82
2018-05-27T18:54:36.156Z,25.72
2018-05-27T19:00:03.494Z,25.47
2018-05-27T19:02:32.304Z,25.28
2018-05-27T19:05:00.988Z,25.04
2018-05-27T19:07:30.177Z,25.78
2018-05-27T19:09:59.150Z,24.98
2018-05-27T19:12:29.786Z,24.66
2018-05-27T19:14:59.107Z,24.45
2018-05-27T19:17:29.125Z,24.28
2018-05-27T19:20:00.687Z,24.18
2018-05-27T19:22:30.118Z,24.12
2018-05-27T19:25:00.249Z,24.90
2018-05-27T19:27:29.051Z,24.22
2018-05-27T19:29:57.911Z,24.01
2018-05-27T19:32:33.848Z,23.86
2018-05-27T19:35:03.264Z,23.72
2018-05-27T19:37:35.292Z,23.62
2018-05-27T19:40:06.863Z,23.52
2018-05-27T19:42:39.120Z,23.45
2018-05-27T19:45:07.847Z,23.38
2018-05-27T19:47:36.690Z,23.34
2018-05-27T19:52:55.034Z,23.17
2018-05-27T19:55:24.027Z,23.10
2018-05-27T19:57:52.968Z,23.01
2018-05-27T20:00:24.350Z,23.69
2018-05-27T20:02:56.715Z,23.04
2018-05-27T20:05:26.626Z,22.89
2018-05-27T20:07:57.290Z,22.79
2018-05-27T20:10:28.774Z,22.68
2018-05-27T20:12:58.118Z,22.58
2018-05-27T20:15:38.684Z,23.27
2018-05-27T20:18:10.889Z,22.59
2018-05-27T20:20:40.490Z,22.43
2018-05-27T20:23:10.191Z,22.35
2018-05-27T20:25:38.819Z,22.26
2018-05-27T20:28:09.501Z,22.15
2018-05-27T20:30:41.971Z,22.05
2018-05-27T20:33:11.488Z,22.74
2018-05-27T20:35:40.503Z,22.83
2018-05-27T20:38:09.589Z,22.15
2018-05-27T20:40:40.210Z,22.72
2018-05-27T20:43:09.453Z,22.03
2018-05-27T20:45:38.221Z,21.79
2018-05-27T20:48:07.408Z,21.63
2018-05-27T20:50:36.878Z,21.50
2018-05-27T20:53:05.947Z,21.39
2018-05-27T20:55:34.860Z,21.29
2018-05-27T20:58:04.282Z,21.18
2018-05-27T21:00:33.863Z,21.10
2018-05-27T21:03:03.036Z,21.84
2018-05-27T21:05:32.441Z,21.22
2018-05-27T21:08:03.863Z,21.09
2018-05-27T21:10:36.807Z,21.03
2018-05-27T21:13:06.763Z,21.00
2018-05-27T21:15:38.206Z,20.97
2018-05-27T21:18:09.093Z,20.95
2018-05-27T21:20:38.059Z,20.88
2018-05-27T21:23:07.732Z,20.83
2018-05-27T21:25:37.713Z,20.78
2018-05-27T21:28:12.439Z,21.47
2018-05-27T21:30:42.572Z,20.94
2018-05-27T21:33:11.643Z,20.83
2018-05-27T21:35:40.743Z,20.77
2018-05-27T21:38:14.304Z,20.72
2018-05-27T21:40:48.607Z,20.68
2018-05-27T21:43:17.748Z,20.65
2018-05-27T21:45:48.066Z,20.63
2018-05-27T21:48:20.674Z,20.61
2018-05-27T21:50:52.780Z,20.58
2018-05-27T21:53:27.383Z,20.56
2018-05-27T21:55:57.196Z,20.52
2018-05-27T21:58:29.359Z,20.47
2018-05-27T22:00:59.641Z,20.42
2018-05-27T22:03:28.423Z,20.37
2018-05-27T22:05:57.880Z,20.31
2018-05-27T22:08:26.606Z,20.26
2018-05-27T22:10:55.264Z,20.97
2018-05-27T22:13:23.933Z,20.43
2018-05-27T22:15:55.299Z,21.03
2018-05-27T22:21:13.204Z,21.05
2018-05-27T22:23:43.665Z,20.43
2018-05-27T22:26:13.156Z,20.22
2018-05-27T22:28:42.277Z,20.08
2018-05-27T22:31:11.103Z,19.95
2018-05-27T22:33:43.047Z,20.61
2018-05-27T22:36:15.246Z,19.92
2018-05-27T22:38:46.394Z,19.68
2018-05-27T22:41:15.076Z,19.55
2018-05-27T22:43:44.314Z,19.47
2018-05-27T22:46:13.608Z,19.40
2018-05-27T22:48:42.242Z,19.38
2018-05-27T22:51:11.539Z,19.35
2018-05-27T22:53:41.369Z,19.32
2018-05-27T22:56:10.580Z,19.29
2018-05-27T22:58:39.234Z,19.27
2018-05-27T23:01:10.905Z,19.26
2018-05-27T23:03:39.681Z,19.28
2018-05-27T23:06:08.298Z,19.31
2018-05-27T23:08:39.451Z,19.33
2018-05-27T23:11:12.853Z,19.32
2018-05-27T23:13:42.127Z,19.31
2018-05-27T23:16:14.379Z,19.31
2018-05-27T23:18:43.025Z,20.02
2018-05-27T23:21:11.693Z,19.55
2018-05-27T23:23:52.061Z,19.45
2018-05-27T23:26:21.691Z,19.36
2018-05-27T23:28:52.511Z,19.31
2018-05-27T23:31:21.607Z,20.01
2018-05-27T23:33:50.219Z,19.50
2018-05-27T23:36:18.862Z,19.38
2018-05-27T23:38:49.624Z,19.99
2018-05-27T23:41:18.606Z,19.38
2018-05-27T23:43:51.352Z,19.13
2018-05-27T23:46:21.011Z,18.93
2018-05-27T23:48:50.096Z,18.79
2018-05-27T23:51:18.754Z,18.70
2018-05-27T23:53:47.644Z,18.63
2018-05-27T23:56:18.428Z,18.57
2018-05-27T23:58:47.107Z,18.50
